ADDS METAR Data

Data at: 1826 UTC 20 Jul 2018

METAR for:KUUU (Newport State Arpt, RI, US)
Text:KUUU 201753Z AUTO 15010KT 10SM CLR 26/17 A3018 RMK AO2 SLP217 T02560172 10267 20217 56004
Temperature: 25.6°C ( 78°F)
Dewpoint: 17.2°C ( 63°F) [RH = 60%]
Pressure (altimeter):30.18 inches Hg (1022.1 mb) [Sea level pressure: 1021.7 mb]
Winds:from the SSE (150 degrees) at 12 MPH (10 knots; 5.1 m/s)
Visibility:10 or more sm (16+ km)
Ceiling:at least 12,000 feet AGL
Clouds:sky clear below 12,000 feet AGL
QC Flag:automated observation with no human augmentation